createdAt,value
2023-03-16T00:00:33.083Z,11.39
2023-03-16T00:03:03.856Z,11.26
2023-03-16T00:05:33.924Z,10.96
2023-03-16T00:08:03.965Z,11.58
2023-03-16T00:10:34.014Z,11.63
2023-03-16T00:13:07.250Z,11.45
2023-03-16T00:15:37.245Z,11.14
2023-03-16T00:18:07.389Z,11.42
2023-03-16T00:20:37.406Z,11.78
2023-03-16T00:23:08.048Z,11.32
2023-03-16T00:25:38.040Z,11.27
2023-03-16T00:28:14.192Z,11.19
2023-03-16T00:30:47.571Z,11.48
2023-03-16T00:33:17.726Z,11.47
2023-03-16T00:35:51.128Z,11.16
2023-03-16T00:38:22.290Z,11.11
2023-03-16T00:40:52.477Z,11.22
2023-03-16T00:43:27.471Z,11.57
2023-03-16T00:46:06.957Z,11.53
2023-03-16T00:48:37.687Z,11.52
2023-03-16T00:51:09.783Z,11.62
2023-03-16T00:53:40.014Z,11.66
2023-03-16T00:56:11.793Z,12.57
2023-03-16T00:58:45.658Z,12.90
2023-03-16T01:01:19.269Z,12.85
2023-03-16T01:03:49.933Z,12.88
2023-03-16T01:06:21.092Z,12.66
2023-03-16T01:08:52.542Z,13.13
2023-03-16T01:11:26.039Z,13.11
2023-03-16T01:13:58.652Z,12.99
2023-03-16T01:16:29.099Z,13.44
2023-03-16T01:18:59.579Z,13.44
2023-03-16T01:21:30.301Z,12.96
2023-03-16T01:24:00.352Z,12.74
2023-03-16T01:26:30.544Z,12.27
2023-03-16T01:29:03.179Z,12.21
2023-03-16T01:31:33.372Z,12.15
2023-03-16T01:34:04.334Z,12.19
2023-03-16T01:36:34.820Z,12.03
2023-03-16T01:39:07.016Z,11.92
2023-03-16T01:41:37.090Z,11.04
2023-03-16T01:44:11.544Z,10.31
2023-03-16T01:46:43.884Z,10.51
2023-03-16T01:49:17.881Z,10.62
2023-03-16T01:51:52.689Z,10.62
2023-03-16T01:54:28.999Z,10.86
2023-03-16T01:57:04.857Z,10.52
2023-03-16T01:59:43.312Z,10.37
2023-03-16T02:02:16.443Z,10.29
2023-03-16T02:04:52.268Z,9.71
2023-03-16T02:07:25.531Z,9.59
2023-03-16T02:10:01.121Z,9.67
2023-03-16T02:12:32.190Z,9.78
2023-03-16T02:15:05.170Z,9.88
2023-03-16T02:17:37.266Z,9.94
2023-03-16T02:20:26.040Z,10.05
2023-03-16T02:22:57.546Z,9.95
2023-03-16T02:25:32.527Z,9.70
2023-03-16T02:28:11.369Z,9.31
2023-03-16T02:30:44.379Z,9.11
2023-03-16T02:33:16.614Z,9.20
2023-03-16T02:35:46.812Z,9.23
2023-03-16T02:38:17.012Z,9.19
2023-03-16T02:40:49.026Z,9.51
2023-03-16T02:43:23.704Z,9.63
2023-03-16T02:46:00.077Z,9.49
2023-03-16T02:48:35.392Z,9.40
2023-03-16T02:51:05.481Z,9.29
2023-03-16T02:53:35.601Z,9.00
2023-03-16T02:56:06.130Z,9.02
2023-03-16T02:58:36.574Z,9.07
2023-03-16T03:01:09.625Z,9.00
2023-03-16T03:03:39.828Z,9.15
2023-03-16T03:06:10.219Z,9.27
2023-03-16T03:08:40.304Z,9.57
2023-03-16T03:11:10.548Z,10.01
2023-03-16T03:13:44.808Z,10.29
2023-03-16T03:16:17.781Z,10.65
2023-03-16T03:18:48.029Z,10.55
2023-03-16T03:21:18.469Z,10.39
2023-03-16T03:23:49.355Z,10.50
2023-03-16T03:26:20.222Z,10.88
2023-03-16T03:28:50.340Z,11.48
2023-03-16T03:31:25.140Z,11.49
2023-03-16T03:33:55.871Z,11.76
2023-03-16T03:36:26.082Z,12.15
2023-03-16T03:38:57.513Z,11.98
2023-03-16T03:41:27.534Z,12.19
2023-03-16T03:43:57.722Z,12.18
2023-03-16T03:46:30.570Z,11.97
2023-03-16T03:49:04.070Z,11.51
2023-03-16T03:51:34.497Z,11.12
2023-03-16T03:54:04.734Z,10.70
2023-03-16T03:56:34.912Z,10.71
2023-03-16T03:59:05.074Z,10.49
2023-03-16T04:01:37.737Z,10.77
2023-03-16T04:04:07.919Z,10.98
2023-03-16T04:06:37.977Z,11.07
2023-03-16T04:09:08.113Z,11.07
2023-03-16T04:11:38.127Z,11.25
2023-03-16T04:14:08.612Z,11.11
2023-03-16T04:16:41.297Z,11.13
2023-03-16T04:19:11.539Z,11.19
2023-03-16T04:21:41.635Z,11.28
2023-03-16T04:24:15.020Z,11.20
2023-03-16T04:26:45.327Z,11.05
2023-03-16T04:29:18.324Z,10.82
2023-03-16T04:31:51.246Z,11.03
2023-03-16T04:34:25.089Z,11.30
2023-03-16T04:36:55.271Z,11.24
2023-03-16T04:39:25.460Z,11.19
2023-03-16T04:41:55.705Z,11.06
2023-03-16T04:44:26.380Z,10.86
2023-03-16T04:46:59.376Z,10.63
2023-03-16T04:49:29.412Z,10.77
2023-03-16T04:51:59.454Z,10.72
2023-03-16T04:54:29.472Z,10.73
2023-03-16T04:56:59.853Z,10.79
2023-03-16T04:59:30.547Z,10.72
2023-03-16T05:02:04.335Z,11.00
2023-03-16T05:04:34.748Z,11.30
2023-03-16T05:07:05.168Z,10.96
2023-03-16T05:09:35.302Z,11.31
2023-03-16T05:12:05.546Z,11.35
2023-03-16T05:14:36.332Z,11.45
2023-03-16T05:17:09.147Z,11.60
2023-03-16T05:19:39.262Z,11.33
2023-03-16T05:22:10.222Z,11.39
2023-03-16T05:24:40.466Z,11.31
2023-03-16T05:27:10.667Z,11.26
2023-03-16T05:29:40.781Z,11.41
2023-03-16T05:32:14.105Z,11.31
2023-03-16T05:34:44.437Z,11.47
2023-03-16T05:37:14.884Z,11.41
2023-03-16T05:39:45.015Z,11.54
2023-03-16T05:42:15.039Z,11.77
2023-03-16T05:44:45.226Z,12.18
2023-03-16T05:47:18.040Z,11.86
2023-03-16T05:49:48.496Z,11.73
2023-03-16T05:52:18.601Z,11.67
2023-03-16T05:54:48.710Z,11.86
2023-03-16T05:57:19.225Z,11.87
2023-03-16T05:59:49.434Z,12.10
2023-03-16T06:02:23.100Z,12.02
2023-03-16T06:04:53.230Z,12.02
2023-03-16T06:07:23.534Z,11.66
2023-03-16T06:09:53.826Z,11.20
2023-03-16T06:12:24.044Z,11.05
2023-03-16T06:14:54.115Z,10.55
2023-03-16T06:17:26.857Z,10.18
2023-03-16T06:19:56.924Z,10.36
2023-03-16T06:22:27.037Z,10.05
2023-03-16T06:24:57.102Z,10.35
2023-03-16T06:27:28.709Z,10.86
2023-03-16T06:29:58.788Z,11.25
2023-03-16T06:32:31.981Z,11.48
2023-03-16T06:35:03.661Z,10.43
2023-03-16T06:37:34.489Z,9.93
2023-03-16T06:40:04.751Z,10.08
2023-03-16T06:42:34.849Z,9.73
2023-03-16T06:45:04.933Z,9.55
2023-03-16T06:47:37.616Z,9.76
2023-03-16T06:50:09.233Z,9.97
2023-03-16T06:52:39.270Z,10.45
2023-03-16T06:55:10.604Z,10.46
2023-03-16T06:57:40.684Z,10.40
2023-03-16T07:00:14.292Z,10.56
2023-03-16T07:02:47.227Z,10.32
2023-03-16T07:05:17.367Z,10.44
2023-03-16T07:07:47.460Z,10.10
2023-03-16T07:10:20.341Z,9.96
2023-03-16T07:12:50.622Z,9.81
2023-03-16T07:15:21.448Z,9.56
2023-03-16T07:17:54.145Z,10.16
2023-03-16T07:20:24.213Z,11.04
2023-03-16T07:22:54.633Z,10.72
2023-03-16T07:25:24.869Z,10.34
2023-03-16T07:27:55.131Z,10.67
2023-03-16T07:30:25.638Z,10.96
2023-03-16T07:32:58.898Z,11.11
2023-03-16T07:35:29.786Z,10.91
2023-03-16T07:37:59.980Z,10.43
2023-03-16T07:40:30.555Z,10.21
2023-03-16T07:43:01.458Z,10.37
2023-03-16T07:45:31.783Z,9.97
2023-03-16T07:48:04.792Z,10.02
2023-03-16T07:50:34.876Z,9.95
2023-03-16T07:53:05.488Z,10.04
2023-03-16T07:55:36.785Z,10.15
2023-03-16T07:58:07.433Z,10.02
2023-03-16T08:00:37.670Z,9.91
2023-03-16T08:03:10.530Z,9.88
2023-03-16T08:05:40.698Z,10.04
2023-03-16T08:08:11.414Z,10.34
2023-03-16T08:10:41.994Z,10.23
2023-03-16T08:13:12.076Z,10.03
2023-03-16T08:15:42.565Z,10.22
2023-03-16T08:18:15.258Z,10.23
2023-03-16T08:20:45.786Z,10.24
2023-03-16T08:23:15.925Z,10.67
2023-03-16T08:25:46.504Z,10.82
2023-03-16T08:28:17.842Z,11.41
2023-03-16T08:30:48.997Z,11.12
2023-03-16T08:33:23.370Z,10.00
2023-03-16T08:35:53.649Z,9.92
2023-03-16T08:38:23.767Z,10.09
2023-03-16T08:40:54.455Z,9.99
2023-03-16T08:43:24.498Z,9.84
2023-03-16T08:45:54.656Z,10.50
2023-03-16T08:48:27.481Z,10.29
2023-03-16T08:50:58.466Z,9.86
2023-03-16T08:53:28.794Z,9.69
2023-03-16T08:56:05.354Z,9.89
2023-03-16T08:58:35.856Z,9.95
2023-03-16T09:01:09.375Z,10.02
2023-03-16T09:03:42.637Z,9.58
2023-03-16T09:06:14.599Z,10.07
2023-03-16T09:08:45.705Z,9.65
2023-03-16T09:11:17.462Z,9.82
2023-03-16T09:13:48.572Z,9.99
2023-03-16T09:16:21.245Z,10.67
2023-03-16T09:18:54.437Z,10.61
2023-03-16T09:21:24.622Z,10.90
2023-03-16T09:23:55.167Z,10.54
2023-03-16T09:26:25.512Z,10.46
2023-03-16T09:28:55.684Z,10.63
2023-03-16T09:31:25.969Z,10.57
2023-03-16T09:33:58.899Z,10.70
2023-03-16T09:36:29.135Z,10.71
2023-03-16T09:38:59.255Z,10.64
2023-03-16T09:41:44.297Z,10.92
2023-03-16T09:44:29.409Z,10.27
2023-03-16T09:47:02.332Z,10.52
2023-03-16T09:49:39.731Z,10.20
2023-03-16T09:52:20.908Z,10.01
2023-03-16T09:54:56.868Z,10.52
2023-03-16T09:57:30.754Z,10.44
2023-03-16T10:00:06.763Z,10.54
2023-03-16T10:02:51.348Z,10.62
2023-03-16T10:05:27.525Z,10.68
2023-03-16T10:08:17.000Z,10.66
2023-03-16T10:11:15.562Z,10.26
2023-03-16T10:13:51.209Z,10.11
2023-03-16T10:16:25.286Z,10.29
2023-03-16T10:19:03.595Z,10.37
2023-03-16T10:21:42.260Z,9.93
2023-03-16T10:24:28.882Z,9.88
2023-03-16T10:27:02.532Z,9.79
2023-03-16T10:29:37.266Z,9.87
2023-03-16T10:32:16.959Z,9.85
2023-03-16T10:34:51.767Z,9.79
2023-03-16T10:37:24.516Z,9.73
2023-03-16T10:39:56.629Z,9.33
2023-03-16T10:42:28.068Z,9.39
2023-03-16T10:45:03.352Z,9.54
2023-03-16T10:47:36.425Z,9.43
2023-03-16T10:50:17.041Z,9.42
2023-03-16T10:52:53.387Z,9.44
2023-03-16T10:55:27.005Z,9.38
2023-03-16T10:57:58.762Z,9.31
2023-03-16T11:00:38.682Z,9.33
2023-03-16T11:03:25.302Z,9.16
2023-03-16T11:06:03.775Z,9.31
2023-03-16T11:08:41.703Z,9.36
2023-03-16T11:11:14.919Z,9.27
2023-03-16T11:13:48.613Z,9.12
2023-03-16T11:16:28.368Z,9.26
2023-03-16T11:19:02.000Z,9.22
2023-03-16T11:21:42.354Z,9.16
2023-03-16T11:24:23.221Z,9.19
2023-03-16T11:26:57.391Z,9.08
2023-03-16T11:29:35.656Z,9.05
2023-03-16T11:32:08.536Z,9.11
2023-03-16T11:34:38.805Z,9.02
2023-03-16T11:37:19.632Z,9.07
2023-03-16T11:40:01.575Z,9.05
2023-03-16T11:42:36.631Z,8.93
2023-03-16T11:45:22.130Z,8.88
2023-03-16T11:48:18.973Z,8.92
2023-03-16T11:51:05.005Z,8.96
2023-03-16T11:53:49.770Z,8.96
2023-03-16T11:56:32.118Z,8.98
2023-03-16T11:59:22.097Z,8.92
2023-03-16T12:02:05.348Z,8.89
2023-03-16T12:04:49.109Z,8.91
2023-03-16T12:07:33.680Z,8.87
2023-03-16T12:10:18.802Z,8.83
2023-03-16T12:13:03.370Z,8.67
2023-03-16T12:15:40.167Z,8.62
2023-03-16T12:18:18.339Z,8.41
2023-03-16T12:20:55.512Z,8.43
2023-03-16T12:23:31.488Z,8.40
2023-03-16T12:26:03.734Z,8.41
2023-03-16T12:28:36.368Z,8.39
2023-03-16T12:31:13.426Z,8.33
2023-03-16T12:34:11.979Z,8.26
2023-03-16T12:36:58.893Z,8.39
2023-03-16T12:39:46.032Z,8.30
2023-03-16T12:42:36.712Z,8.29
2023-03-16T12:45:16.101Z,8.38
2023-03-16T12:47:55.251Z,8.21
2023-03-16T12:50:25.609Z,8.25
2023-03-16T12:52:56.907Z,8.07
2023-03-16T12:55:30.142Z,8.13
2023-03-16T12:58:08.782Z,8.16
2023-03-16T13:00:43.475Z,8.08
2023-03-16T13:03:18.542Z,8.13
2023-03-16T13:05:53.582Z,8.07
2023-03-16T13:08:24.773Z,8.12
2023-03-16T13:11:06.538Z,8.14
2023-03-16T13:13:37.462Z,8.14
2023-03-16T13:16:13.022Z,8.26
2023-03-16T13:18:45.391Z,8.09
2023-03-16T13:21:21.699Z,8.12
2023-03-16T13:23:58.716Z,8.19
2023-03-16T13:26:43.582Z,8.11
2023-03-16T13:29:27.233Z,8.07
2023-03-16T13:32:02.125Z,8.20
2023-03-16T13:34:34.771Z,7.96
2023-03-16T13:37:04.825Z,8.12
2023-03-16T13:39:35.575Z,7.96
2023-03-16T13:42:07.856Z,7.94
2023-03-16T13:44:43.325Z,7.81
2023-03-16T13:47:20.779Z,7.85
2023-03-16T13:49:52.255Z,7.80
2023-03-16T13:52:30.160Z,7.80
2023-03-16T13:55:02.219Z,7.79
2023-03-16T13:57:35.114Z,7.71
2023-03-16T14:00:10.072Z,7.72
2023-03-16T14:02:45.422Z,7.70
2023-03-16T14:05:21.366Z,7.61
2023-03-16T14:07:53.387Z,7.62
2023-03-16T14:10:25.484Z,7.55
2023-03-16T14:12:56.593Z,7.46
2023-03-16T14:15:31.220Z,7.54
2023-03-16T14:18:16.888Z,7.53
2023-03-16T14:20:47.163Z,7.42
2023-03-16T14:23:21.958Z,7.39
2023-03-16T14:25:53.733Z,7.39
2023-03-16T14:28:32.116Z,7.37
2023-03-16T14:31:07.603Z,7.33
2023-03-16T14:33:42.850Z,7.27
2023-03-16T14:36:17.749Z,7.19
2023-03-16T14:38:48.859Z,7.20
2023-03-16T14:41:26.447Z,7.18
2023-03-16T14:44:00.331Z,7.10
2023-03-16T14:46:33.332Z,7.11
2023-03-16T14:49:11.000Z,7.07
2023-03-16T14:51:43.770Z,7.06
2023-03-16T14:54:18.425Z,7.08
2023-03-16T14:56:51.863Z,7.05
2023-03-16T14:59:22.526Z,7.03
2023-03-16T15:01:53.714Z,7.10
2023-03-16T15:04:31.497Z,7.04
2023-03-16T15:07:02.363Z,7.04
2023-03-16T15:09:38.866Z,6.98
2023-03-16T15:12:18.183Z,6.99
2023-03-16T15:15:00.757Z,6.92
2023-03-16T15:17:30.806Z,6.97
2023-03-16T15:20:03.475Z,6.87
2023-03-16T15:22:35.733Z,6.95
2023-03-16T15:25:14.812Z,6.95
2023-03-16T15:27:44.864Z,6.84
2023-03-16T15:30:19.338Z,6.87
2023-03-16T15:32:49.706Z,6.83
2023-03-16T15:35:23.450Z,6.89
2023-03-16T15:37:54.203Z,6.85
2023-03-16T15:40:26.494Z,6.83
2023-03-16T15:42:56.830Z,6.79
2023-03-16T15:45:27.420Z,6.84
2023-03-16T15:47:58.434Z,6.80
2023-03-16T15:50:31.701Z,6.77
2023-03-16T15:53:05.702Z,6.79
2023-03-16T15:55:39.321Z,6.70
2023-03-16T15:58:13.638Z,6.69
2023-03-16T16:00:44.294Z,6.70
2023-03-16T16:03:15.540Z,6.59
2023-03-16T16:05:48.135Z,6.55
2023-03-16T16:08:18.202Z,6.48
2023-03-16T16:10:49.723Z,6.48
2023-03-16T16:13:24.819Z,6.46
2023-03-16T16:15:57.003Z,6.46
2023-03-16T16:18:32.625Z,6.42
2023-03-16T16:21:09.142Z,6.43
2023-03-16T16:23:39.266Z,6.35
2023-03-16T16:26:19.857Z,6.37
2023-03-16T16:28:50.124Z,6.36
2023-03-16T16:31:20.974Z,6.30
2023-03-16T16:33:51.104Z,6.33
2023-03-16T16:36:25.451Z,6.32
2023-03-16T16:38:57.243Z,6.34
2023-03-16T16:41:32.035Z,6.32
2023-03-16T16:44:08.381Z,6.28
2023-03-16T16:46:43.983Z,6.24
2023-03-16T16:49:19.786Z,6.22
2023-03-16T16:51:53.078Z,6.21
2023-03-16T16:54:25.218Z,6.16
2023-03-16T16:56:57.431Z,6.17
2023-03-16T16:59:29.912Z,6.10
2023-03-16T17:02:00.513Z,6.11
2023-03-16T17:04:32.705Z,6.10
2023-03-16T17:07:05.372Z,6.07
2023-03-16T17:09:35.368Z,6.05
2023-03-16T17:12:05.540Z,6.04
2023-03-16T17:14:35.582Z,6.06
2023-03-16T17:17:10.089Z,5.96
2023-03-16T17:19:40.229Z,5.89
2023-03-16T17:22:24.684Z,5.86
2023-03-16T17:24:55.437Z,5.77
2023-03-16T17:27:29.904Z,5.78
2023-03-16T17:30:00.428Z,5.72
2023-03-16T17:32:30.745Z,5.71
2023-03-16T17:35:01.092Z,5.68
2023-03-16T17:37:33.726Z,5.65
2023-03-16T17:40:03.764Z,5.64
2023-03-16T17:42:33.771Z,5.63
2023-03-16T17:45:05.109Z,5.56
2023-03-16T17:47:39.807Z,5.58
2023-03-16T17:50:20.170Z,5.53
2023-03-16T17:52:55.135Z,5.46
2023-03-16T17:55:27.299Z,5.47
2023-03-16T17:57:58.502Z,5.51
2023-03-16T18:00:32.677Z,5.51
2023-03-16T18:03:04.546Z,5.52
2023-03-16T18:05:36.889Z,5.47
2023-03-16T18:08:18.209Z,5.53
2023-03-16T18:10:49.706Z,5.50
2023-03-16T18:13:23.730Z,5.50
2023-03-16T18:15:55.324Z,5.53
2023-03-16T18:18:27.834Z,5.53
2023-03-16T18:20:58.329Z,5.48
2023-03-16T18:23:33.683Z,5.47
2023-03-16T18:26:06.527Z,5.47
2023-03-16T18:28:37.885Z,5.50
2023-03-16T18:31:08.498Z,5.71
2023-03-16T18:33:41.220Z,5.61
2023-03-16T18:36:18.901Z,5.59
2023-03-16T18:38:53.941Z,5.83
2023-03-16T18:41:25.887Z,5.80
2023-03-16T18:43:58.143Z,5.73
2023-03-16T18:46:30.206Z,5.71
2023-03-16T18:49:02.243Z,5.84
2023-03-16T18:51:32.669Z,6.41
2023-03-16T18:54:05.842Z,6.03
